createdAt,value
2022-09-10T00:01:40.639Z,19.61
2022-09-10T00:04:14.462Z,19.62
2022-09-10T00:06:44.937Z,19.53
2022-09-10T00:09:14.332Z,19.58
2022-09-10T00:11:43.762Z,19.52
2022-09-10T00:14:20.663Z,19.48
2022-09-10T00:16:50.593Z,19.28
2022-09-10T00:19:20.056Z,19.35
2022-09-10T00:21:50.787Z,19.37
2022-09-10T00:24:19.390Z,19.22
2022-09-10T00:26:48.465Z,19.15
2022-09-10T00:29:17.658Z,19.15
2022-09-10T00:31:46.821Z,19.01
2022-09-10T00:34:15.374Z,19.30
2022-09-10T00:36:45.050Z,19.16
2022-09-10T00:39:18.575Z,19.01
2022-09-10T00:41:49.206Z,19.27
2022-09-10T00:44:40.927Z,19.12
2022-09-10T00:47:38.405Z,19.17
2022-09-10T00:50:29.807Z,19.24
2022-09-10T00:53:06.338Z,19.10
2022-09-10T00:55:38.520Z,19.06
2022-09-10T00:58:10.276Z,18.95
2022-09-10T01:00:41.427Z,19.04
2022-09-10T01:03:14.243Z,19.14
2022-09-10T01:05:47.182Z,19.07
2022-09-10T01:08:18.227Z,18.92
2022-09-10T01:11:50.008Z,18.92
2022-09-10T01:14:58.882Z,18.98
2022-09-10T01:18:17.554Z,18.82
2022-09-10T01:21:24.225Z,18.82
2022-09-10T01:24:25.126Z,18.68
2022-09-10T01:27:46.036Z,18.71
2022-09-10T01:30:41.808Z,18.64
2022-09-10T01:33:38.205Z,18.86
2022-09-10T01:36:26.055Z,18.75
2022-09-10T01:38:55.709Z,18.79
2022-09-10T01:41:26.061Z,18.68
2022-09-10T01:43:54.802Z,18.67
2022-09-10T01:47:01.193Z,18.81
2022-09-10T01:50:24.278Z,18.78
2022-09-10T01:53:31.125Z,18.80
2022-09-10T01:56:26.123Z,18.82
2022-09-10T01:59:23.578Z,18.80
2022-09-10T02:02:22.851Z,18.78
2022-09-10T02:04:54.094Z,18.63
2022-09-10T02:07:26.994Z,18.67
2022-09-10T02:09:55.972Z,18.59
2022-09-10T02:12:24.777Z,18.60
2022-09-10T02:14:57.362Z,18.61
2022-09-10T02:17:37.673Z,18.50
2022-09-10T02:20:14.855Z,18.42
2022-09-10T02:22:52.637Z,18.58
2022-09-10T02:25:21.335Z,18.72
2022-09-10T02:27:49.897Z,18.64
2022-09-10T02:30:20.337Z,18.69
2022-09-10T02:32:48.838Z,18.57
2022-09-10T02:35:17.515Z,18.50
2022-09-10T02:37:46.021Z,18.35
2022-09-10T02:40:14.738Z,18.52
2022-09-10T02:42:46.863Z,18.51
2022-09-10T02:45:16.509Z,18.48
2022-09-10T02:47:45.129Z,18.51
2022-09-10T02:50:13.749Z,18.51
2022-09-10T02:52:43.173Z,18.48
2022-09-10T02:55:12.928Z,18.34
2022-09-10T02:57:41.080Z,18.36
2022-09-10T03:00:11.089Z,18.21
2022-09-10T03:02:40.460Z,18.16
2022-09-10T03:05:09.747Z,18.08
2022-09-10T03:07:38.328Z,18.11
2022-09-10T03:10:08.386Z,18.01
2022-09-10T03:12:37.220Z,17.94
2022-09-10T03:15:07.299Z,18.05
2022-09-10T03:17:36.012Z,18.09
2022-09-10T03:20:06.760Z,18.07
2022-09-10T03:22:35.537Z,18.06
2022-09-10T03:25:05.684Z,17.88
2022-09-10T03:27:34.353Z,17.83
2022-09-10T03:30:03.374Z,18.10
2022-09-10T03:32:32.368Z,18.02
2022-09-10T03:35:00.938Z,18.10
2022-09-10T03:37:31.431Z,17.88
2022-09-10T03:40:00.924Z,18.10
2022-09-10T03:42:29.564Z,18.03
2022-09-10T03:44:58.126Z,17.99
2022-09-10T03:47:27.517Z,18.09
2022-09-10T03:49:56.327Z,18.18
2022-09-10T03:52:26.619Z,18.23
2022-09-10T03:54:56.330Z,18.25
2022-09-10T03:57:26.065Z,18.08
2022-09-10T03:59:54.615Z,18.10
2022-09-10T04:02:23.236Z,18.10
2022-09-10T04:04:51.824Z,18.14
2022-09-10T04:07:21.384Z,18.18
2022-09-10T04:09:49.929Z,17.99
2022-09-10T04:12:18.479Z,18.03
2022-09-10T04:14:47.115Z,18.10
2022-09-10T04:17:15.891Z,18.09
2022-09-10T04:19:44.977Z,18.07
2022-09-10T04:22:13.486Z,18.16
2022-09-10T04:24:42.369Z,18.12
2022-09-10T04:27:10.939Z,18.05
2022-09-10T04:29:39.593Z,18.07
2022-09-10T04:32:09.356Z,18.12
2022-09-10T04:34:37.986Z,18.06
2022-09-10T04:37:06.582Z,18.07
2022-09-10T04:39:35.171Z,18.25
2022-09-10T04:42:09.951Z,18.28
2022-09-10T04:44:38.468Z,18.26
2022-09-10T04:47:07.114Z,18.29
2022-09-10T04:49:35.657Z,18.21
2022-09-10T04:52:04.980Z,17.98
2022-09-10T04:54:34.322Z,18.09
2022-09-10T04:57:02.898Z,18.21
2022-09-10T04:59:31.701Z,18.22
2022-09-10T05:02:00.363Z,18.30
2022-09-10T05:04:28.938Z,18.27
2022-09-10T05:06:57.911Z,18.27
2022-09-10T05:09:31.166Z,18.41
2022-09-10T05:12:01.211Z,18.46
2022-09-10T05:14:30.411Z,18.61
2022-09-10T05:17:00.203Z,18.56
2022-09-10T05:19:29.163Z,18.51
2022-09-10T05:21:57.733Z,18.57
2022-09-10T05:24:27.528Z,18.48
2022-09-10T05:26:57.078Z,18.50
2022-09-10T05:29:25.867Z,18.46
2022-09-10T05:31:54.599Z,18.57
2022-09-10T05:34:24.758Z,18.48
2022-09-10T05:36:53.309Z,18.36
2022-09-10T05:39:21.907Z,18.53
2022-09-10T05:41:50.516Z,18.39
2022-09-10T05:44:19.267Z,18.57
2022-09-10T05:46:48.349Z,18.35
2022-09-10T05:49:16.993Z,18.28
2022-09-10T05:51:45.611Z,18.47
2022-09-10T05:54:14.151Z,18.47
2022-09-10T05:56:42.832Z,18.81
2022-09-10T05:59:11.406Z,19.31
2022-09-10T06:01:40.071Z,19.27
2022-09-10T06:04:11.831Z,19.45
2022-09-10T06:06:41.157Z,19.68
2022-09-10T06:09:09.791Z,19.82
2022-09-10T06:11:38.710Z,19.35
2022-09-10T06:14:07.455Z,19.17
2022-09-10T06:16:35.989Z,19.07
2022-09-10T06:19:03.909Z,19.15
2022-09-10T06:21:32.798Z,18.99
2022-09-10T06:24:01.734Z,18.88
2022-09-10T06:26:30.294Z,18.78
2022-09-10T06:28:58.931Z,18.50
2022-09-10T06:31:27.713Z,18.67
2022-09-10T06:33:56.196Z,18.77
2022-09-10T06:36:24.876Z,18.85
2022-09-10T06:38:55.737Z,18.94
2022-09-10T06:41:25.033Z,19.11
2022-09-10T06:43:52.713Z,19.24
2022-09-10T06:49:12.098Z,19.24
2022-09-10T06:51:39.985Z,19.23
2022-09-10T06:54:08.728Z,19.40
2022-09-10T06:56:37.353Z,19.33
2022-09-10T06:59:05.746Z,19.55
2022-09-10T07:01:34.197Z,19.43
2022-09-10T07:04:03.003Z,19.52
2022-09-10T07:06:33.806Z,19.60
2022-09-10T07:09:05.744Z,19.34
2022-09-10T07:11:37.952Z,19.43
2022-09-10T07:14:14.037Z,19.29
2022-09-10T07:16:44.716Z,19.58
2022-09-10T07:19:15.212Z,19.67
2022-09-10T07:21:45.119Z,19.53
2022-09-10T07:24:14.602Z,19.59
2022-09-10T07:26:42.975Z,19.60
2022-09-10T07:29:11.521Z,19.70
2022-09-10T07:31:41.719Z,19.76
2022-09-10T07:34:10.167Z,19.88
2022-09-10T07:36:38.517Z,19.69
2022-09-10T07:39:06.925Z,19.65
2022-09-10T07:41:36.983Z,19.87
2022-09-10T07:44:05.688Z,20.00
2022-09-10T07:46:35.118Z,19.85
2022-09-10T07:49:09.373Z,19.78
2022-09-10T07:51:39.482Z,19.89
2022-09-10T07:54:08.988Z,19.84
2022-09-10T07:56:37.996Z,19.78
2022-09-10T07:59:06.392Z,19.64
2022-09-10T08:01:34.793Z,19.75
2022-09-10T08:04:05.231Z,19.87
2022-09-10T08:06:34.109Z,19.90
2022-09-10T08:09:09.976Z,19.95
2022-09-10T08:11:41.930Z,19.85
2022-09-10T08:14:13.465Z,20.18
2022-09-10T08:16:44.541Z,20.25
2022-09-10T08:19:15.985Z,20.58
2022-09-10T08:21:45.443Z,20.59
2022-09-10T08:24:14.025Z,21.02
2022-09-10T08:26:43.582Z,21.27
2022-09-10T08:29:13.966Z,21.45
2022-09-10T08:31:43.376Z,21.21
2022-09-10T08:34:14.431Z,20.62
2022-09-10T08:36:43.862Z,20.58
2022-09-10T08:39:14.419Z,20.37
2022-09-10T08:41:56.463Z,20.42
2022-09-10T08:44:36.806Z,20.24
2022-09-10T08:47:53.693Z,20.15
2022-09-10T08:50:49.471Z,20.06
2022-09-10T08:53:50.097Z,19.79
2022-09-10T08:56:23.550Z,19.56
2022-09-10T08:59:23.905Z,19.47
2022-09-10T09:02:01.949Z,19.36
2022-09-10T09:05:01.539Z,19.25
2022-09-10T09:07:39.614Z,19.29
2022-09-10T09:11:00.431Z,19.64
2022-09-10T09:13:57.692Z,19.37
2022-09-10T09:16:55.684Z,19.27
2022-09-10T09:20:04.702Z,19.56
2022-09-10T09:23:12.623Z,19.52
2022-09-10T09:26:11.116Z,19.67
2022-09-10T09:28:50.667Z,19.86
2022-09-10T09:31:33.890Z,19.77
2022-09-10T09:34:22.985Z,20.05
2022-09-10T09:36:56.600Z,20.18
2022-09-10T09:40:07.189Z,20.51
2022-09-10T09:42:57.499Z,20.51
2022-09-10T09:45:25.875Z,20.81
2022-09-10T09:47:54.723Z,20.57
2022-09-10T09:50:23.234Z,20.74
2022-09-10T09:52:56.786Z,20.89
2022-09-10T09:56:10.965Z,21.59
2022-09-10T09:58:40.569Z,22.03
2022-09-10T10:01:22.679Z,21.46
2022-09-10T10:03:54.639Z,21.59
2022-09-10T10:06:49.476Z,21.83
2022-09-10T10:09:30.056Z,22.70
2022-09-10T10:12:09.030Z,23.56
2022-09-10T10:14:43.383Z,23.38
2022-09-10T10:17:32.768Z,22.85
2022-09-10T10:20:13.796Z,23.28
2022-09-10T10:22:48.765Z,23.45
2022-09-10T10:25:38.825Z,23.21
2022-09-10T10:28:25.322Z,22.68
2022-09-10T10:30:59.600Z,23.04
2022-09-10T10:33:33.888Z,22.90
2022-09-10T10:36:25.620Z,23.14
2022-09-10T10:39:36.638Z,23.41
2022-09-10T10:43:08.052Z,23.74
2022-09-10T10:46:09.999Z,22.76
2022-09-10T10:49:32.579Z,23.31
2022-09-10T10:52:46.841Z,23.28
2022-09-10T10:56:00.608Z,23.29
2022-09-10T10:58:56.041Z,23.51
2022-09-10T11:01:30.236Z,24.00
2022-09-10T11:04:36.161Z,23.78
2022-09-10T11:07:21.943Z,23.71
2022-09-10T11:10:13.043Z,23.22
2022-09-10T11:13:03.324Z,23.14
2022-09-10T11:15:42.607Z,23.64
2022-09-10T11:18:45.889Z,24.17
2022-09-10T11:22:03.303Z,24.07
2022-09-10T11:24:57.225Z,24.24
2022-09-10T11:27:45.165Z,24.45
2022-09-10T11:30:17.717Z,24.59
2022-09-10T11:33:10.245Z,24.59
2022-09-10T11:36:09.681Z,24.38
2022-09-10T11:38:57.781Z,24.67
2022-09-10T11:41:34.610Z,24.73
2022-09-10T11:44:16.464Z,24.47
2022-09-10T11:47:47.978Z,24.56
2022-09-10T11:50:57.997Z,24.72
2022-09-10T11:53:28.282Z,24.79
2022-09-10T11:56:50.035Z,24.62
2022-09-10T12:00:12.040Z,24.40
2022-09-10T12:03:28.028Z,24.64
2022-09-10T12:06:32.147Z,24.38
2022-09-10T12:09:33.048Z,24.16
2022-09-10T12:12:14.135Z,24.74
2022-09-10T12:14:43.624Z,23.90
2022-09-10T12:17:42.721Z,23.96
2022-09-10T12:20:51.088Z,24.57
2022-09-10T12:23:40.742Z,24.02
2022-09-10T12:26:19.843Z,24.45
2022-09-10T12:28:49.510Z,24.06
2022-09-10T12:31:22.237Z,24.24
2022-09-10T12:34:06.898Z,24.94
2022-09-10T12:36:36.748Z,25.29
2022-09-10T12:39:28.257Z,25.16
2022-09-10T12:42:23.858Z,25.14
2022-09-10T12:44:54.273Z,24.99
2022-09-10T12:47:43.547Z,25.66
2022-09-10T12:50:32.918Z,25.15
2022-09-10T12:53:47.415Z,25.22
2022-09-10T12:56:45.787Z,24.47
2022-09-10T13:00:13.565Z,24.34
2022-09-10T13:03:07.858Z,24.85
2022-09-10T13:05:48.662Z,24.44
2022-09-10T13:08:28.681Z,24.84
2022-09-10T13:10:59.118Z,24.64
2022-09-10T13:13:45.641Z,24.99
2022-09-10T13:16:26.689Z,25.47
2022-09-10T13:19:18.005Z,24.86
2022-09-10T13:21:48.231Z,25.16
2022-09-10T13:24:36.553Z,25.04
2022-09-10T13:27:33.745Z,24.90
2022-09-10T13:30:20.285Z,24.59
2022-09-10T13:33:01.341Z,24.11
2022-09-10T13:36:10.727Z,24.00
2022-09-10T13:39:32.429Z,24.74
2022-09-10T13:42:47.391Z,24.84
2022-09-10T13:45:49.234Z,24.14
2022-09-10T13:48:27.697Z,24.50
2022-09-10T13:51:23.396Z,24.74
2022-09-10T13:53:54.337Z,24.80
2022-09-10T13:56:28.262Z,24.89
2022-09-10T13:59:02.369Z,25.39
2022-09-10T14:01:59.921Z,25.37
2022-09-10T14:04:35.894Z,25.21
2022-09-10T14:07:22.137Z,25.13
2022-09-10T14:09:59.932Z,25.15
2022-09-10T14:12:35.217Z,24.83
2022-09-10T14:15:07.673Z,25.04
2022-09-10T14:17:47.905Z,25.01
2022-09-10T14:20:27.154Z,24.75
2022-09-10T14:23:15.283Z,24.94
2022-09-10T14:25:46.685Z,25.09
2022-09-10T14:28:28.953Z,24.97
2022-09-10T14:31:25.455Z,25.08
2022-09-10T14:33:57.742Z,24.90
2022-09-10T14:36:30.115Z,24.94
2022-09-10T14:39:21.122Z,24.85
2022-09-10T14:42:10.425Z,24.87
2022-09-10T14:44:43.646Z,24.73
2022-09-10T14:47:37.364Z,24.56
2022-09-10T14:50:40.818Z,24.59
2022-09-10T14:53:11.881Z,24.69
2022-09-10T14:55:41.692Z,24.78
2022-09-10T14:58:12.091Z,24.84
2022-09-10T15:00:42.649Z,24.86
2022-09-10T15:03:16.163Z,24.72
2022-09-10T15:05:46.354Z,24.83
2022-09-10T15:08:15.809Z,24.62
2022-09-10T15:10:45.151Z,24.44
2022-09-10T15:13:18.883Z,24.30
2022-09-10T15:15:48.263Z,24.40
2022-09-10T15:18:17.673Z,24.23
2022-09-10T15:20:47.091Z,24.23
2022-09-10T15:23:18.336Z,23.96
2022-09-10T15:26:11.557Z,24.14
2022-09-10T15:28:42.531Z,24.07
2022-09-10T15:31:12.005Z,23.77
2022-09-10T15:33:42.201Z,23.86
2022-09-10T15:36:11.581Z,23.76
2022-09-10T15:38:41.112Z,23.73
2022-09-10T15:41:13.983Z,23.72
2022-09-10T15:43:44.825Z,23.74
2022-09-10T15:46:17.199Z,23.67
2022-09-10T15:48:47.613Z,23.65
2022-09-10T15:51:23.170Z,23.71
2022-09-10T15:53:54.479Z,23.67
2022-09-10T15:56:27.159Z,23.58
2022-09-10T15:58:58.832Z,23.47
2022-09-10T16:01:29.151Z,23.41
2022-09-10T16:04:04.173Z,23.24
2022-09-10T16:06:42.246Z,23.19
2022-09-10T16:09:13.871Z,23.07
2022-09-10T16:11:45.532Z,23.07
2022-09-10T16:14:16.884Z,23.00
2022-09-10T16:16:46.351Z,22.94
2022-09-10T16:19:15.813Z,22.85
2022-09-10T16:21:48.415Z,22.81
2022-09-10T16:24:17.892Z,22.84
2022-09-10T16:26:49.210Z,22.83
2022-09-10T16:29:21.427Z,22.65
2022-09-10T16:31:50.825Z,22.70
2022-09-10T16:34:22.280Z,22.67
2022-09-10T16:36:51.964Z,22.62
2022-09-10T16:39:21.400Z,22.56
2022-09-10T16:41:51.195Z,22.40
2022-09-10T16:44:21.005Z,22.22
2022-09-10T16:46:53.390Z,22.09
2022-09-10T16:49:21.867Z,22.03
2022-09-10T16:51:51.267Z,22.01
2022-09-10T16:54:21.536Z,21.85
2022-09-10T16:56:51.010Z,21.77
2022-09-10T16:59:23.816Z,21.82
2022-09-10T17:01:54.083Z,21.63
2022-09-10T17:04:28.960Z,21.63
2022-09-10T17:06:59.137Z,21.61
2022-09-10T17:09:27.990Z,21.50
2022-09-10T17:11:57.370Z,21.38
2022-09-10T17:14:26.800Z,21.31
2022-09-10T17:16:56.563Z,21.27
2022-09-10T17:19:32.010Z,21.20
2022-09-10T17:22:02.777Z,21.15
2022-09-10T17:24:32.297Z,21.16
2022-09-10T17:27:00.880Z,21.09
2022-09-10T17:29:29.977Z,21.00
2022-09-10T17:31:58.720Z,20.99
2022-09-10T17:34:28.209Z,20.85
2022-09-10T17:36:56.594Z,20.85
2022-09-10T17:39:28.453Z,20.90
2022-09-10T17:41:57.023Z,20.88
2022-09-10T17:44:26.991Z,20.75
2022-09-10T17:46:58.091Z,20.71
2022-09-10T17:49:26.450Z,20.61
2022-09-10T17:51:54.827Z,20.60
2022-09-10T17:54:25.872Z,20.49
2022-09-10T17:56:54.210Z,20.35
2022-09-10T17:59:22.671Z,20.33
2022-09-10T18:01:52.506Z,20.06
2022-09-10T18:04:21.728Z,20.20
2022-09-10T18:06:52.440Z,20.15
2022-09-10T18:09:22.512Z,20.08
2022-09-10T18:11:51.038Z,20.08
2022-09-10T18:14:21.639Z,19.98
2022-09-10T18:16:51.505Z,20.00
2022-09-10T18:19:21.109Z,20.04
2022-09-10T18:21:51.145Z,19.99
2022-09-10T18:24:24.219Z,19.94
2022-09-10T18:26:55.007Z,19.89
2022-09-10T18:29:27.911Z,19.92
2022-09-10T18:32:01.793Z,19.89
2022-09-10T18:34:31.511Z,19.85
2022-09-10T18:37:02.787Z,19.61
2022-09-10T18:39:33.728Z,19.58
2022-09-10T18:42:02.895Z,19.67
2022-09-10T18:44:34.360Z,19.63
2022-09-10T18:47:03.686Z,19.59
2022-09-10T18:49:32.079Z,19.53
2022-09-10T18:52:00.502Z,19.33
2022-09-10T18:54:29.345Z,19.40
2022-09-10T18:56:58.436Z,19.41
2022-09-10T18:59:27.500Z,19.35
2022-09-10T19:01:56.309Z,19.42
2022-09-10T19:04:29.165Z,19.34
2022-09-10T19:06:58.617Z,19.14
2022-09-10T19:09:30.425Z,19.30
2022-09-10T19:12:00.589Z,19.10
2022-09-10T19:14:32.769Z,19.03
2022-09-10T19:17:02.536Z,19.25
2022-09-10T19:19:35.309Z,19.17
2022-09-10T19:22:10.714Z,19.13
2022-09-10T19:24:55.553Z,19.15
2022-09-10T19:27:25.212Z,19.20
2022-09-10T19:29:53.866Z,19.02
2022-09-10T19:32:22.454Z,19.07
2022-09-10T19:34:52.046Z,18.91
2022-09-10T19:37:21.112Z,18.98
2022-09-10T19:39:49.558Z,18.96
2022-09-10T19:42:18.074Z,18.99
2022-09-10T19:44:46.394Z,18.80
2022-09-10T19:47:14.780Z,18.87
2022-09-10T19:49:43.301Z,18.82
2022-09-10T19:52:11.701Z,18.76
2022-09-10T19:54:40.043Z,18.73
2022-09-10T19:57:08.404Z,18.60
2022-09-10T19:59:36.755Z,18.50
2022-09-10T20:02:05.180Z,18.33
2022-09-10T20:04:33.842Z,18.27
2022-09-10T20:07:02.227Z,18.25
2022-09-10T20:09:30.599Z,18.41
2022-09-10T20:11:59.068Z,18.13
2022-09-10T20:14:28.903Z,18.21
2022-09-10T20:16:57.233Z,18.15
2022-09-10T20:19:25.747Z,17.95
2022-09-10T20:21:53.428Z,18.01
2022-09-10T20:32:10.316Z,17.85
2022-09-10T20:37:09.360Z,17.68
2022-09-10T20:39:57.902Z,17.80
2022-09-10T20:42:33.141Z,17.75
2022-09-10T20:45:20.514Z,17.66
2022-09-10T20:47:49.291Z,17.67
2022-09-10T20:50:35.366Z,17.24
2022-09-10T20:53:03.264Z,17.38
2022-09-10T20:55:31.036Z,17.55
2022-09-10T20:57:58.777Z,17.34
2022-09-10T21:00:30.095Z,17.31
2022-09-10T21:02:58.253Z,17.17
2022-09-10T21:05:28.342Z,17.19
2022-09-10T21:07:56.255Z,17.39
2022-09-10T21:10:24.169Z,17.25
2022-09-10T21:12:51.730Z,17.15
2022-09-10T21:15:19.354Z,17.27
2022-09-10T21:17:48.302Z,17.32
2022-09-10T21:20:16.361Z,17.24
2022-09-10T21:22:44.835Z,17.15
2022-09-10T21:25:13.175Z,17.08
2022-09-10T21:27:42.427Z,17.15
2022-09-10T21:30:11.059Z,17.04
2022-09-10T21:32:38.920Z,17.32
2022-09-10T21:35:07.577Z,17.13
2022-09-10T21:37:35.498Z,17.24
2022-09-10T21:40:12.257Z,17.32
2022-09-10T21:42:40.050Z,17.34
2022-09-10T21:45:08.604Z,17.36
2022-09-10T21:47:57.776Z,17.31
2022-09-10T21:50:25.540Z,17.22
2022-09-10T21:52:56.300Z,17.22
2022-09-10T21:55:24.079Z,17.17
2022-09-10T21:57:52.516Z,17.15
2022-09-10T22:00:20.359Z,17.18
2022-09-10T22:02:49.640Z,17.14
2022-09-10T22:05:17.293Z,17.10
2022-09-10T22:07:44.897Z,17.17
2022-09-10T22:10:12.830Z,16.98
2022-09-10T22:12:40.444Z,16.99
2022-09-10T22:15:09.452Z,17.03
2022-09-10T22:17:37.132Z,16.84
2022-09-10T22:20:07.357Z,16.89
2022-09-10T22:22:34.964Z,16.86
2022-09-10T22:25:02.563Z,16.77
2022-09-10T22:27:35.305Z,16.94
2022-09-10T22:30:04.841Z,16.81
2022-09-10T22:32:32.530Z,16.88
2022-09-10T22:35:00.168Z,16.75
2022-09-10T22:37:28.151Z,16.88
2022-09-10T22:39:55.961Z,16.71
2022-09-10T22:42:23.782Z,16.71
2022-09-10T22:44:51.981Z,16.76
2022-09-10T22:47:19.620Z,16.76
2022-09-10T22:49:47.620Z,16.64
2022-09-10T22:52:15.827Z,16.59
2022-09-10T22:54:45.279Z,16.61
2022-09-10T22:57:13.291Z,16.67
2022-09-10T22:59:41.398Z,16.58
2022-09-10T23:02:10.484Z,16.54
2022-09-10T23:04:38.088Z,16.59
2022-09-10T23:07:24.287Z,16.37
2022-09-10T23:09:57.810Z,16.39
2022-09-10T23:12:25.627Z,16.43
2022-09-10T23:15:11.669Z,16.48
2022-09-10T23:17:58.850Z,16.28
2022-09-10T23:20:31.112Z,16.22
2022-09-10T23:22:59.260Z,16.18
2022-09-10T23:25:26.965Z,16.02
2022-09-10T23:27:56.056Z,16.04
2022-09-10T23:30:24.025Z,16.10
2022-09-10T23:32:53.220Z,16.04
2022-09-10T23:35:20.844Z,16.06
2022-09-10T23:37:48.843Z,15.99
2022-09-10T23:40:17.390Z,16.00
2022-09-10T23:42:45.009Z,15.84
2022-09-10T23:45:12.597Z,15.79
2022-09-10T23:47:40.245Z,15.85
2022-09-10T23:50:08.802Z,16.03
2022-09-10T23:52:36.407Z,15.90
2022-09-10T23:55:04.355Z,16.06
2022-09-10T23:57:32.043Z,15.82
